Time;durP1;ratioP1;P1;durP2;ratioP2;P2;SDS_P1;SDS_P2;PMS_P1;PMS_P2;Temp;Humidity;BMP_temperature;BMP_pressure;BME280_temperature;BME280_humidity;BME280_pressure;Samples;Min_cycle;Max_cycle;Signal;HPM_P1;HPM_P2
2021/04/13 00:02:30;;;;;;;11.15;10.13;;;4.10;99.90;;;;;;5045883;28;20295;-87
2021/04/13 00:05:03;;;;;;;12.30;10.45;;;4.00;99.90;;;;;;5071028;28;20234;-86
2021/04/13 00:07:34;;;;;;;11.40;10.20;;;3.90;99.90;;;;;;5070020;28;20202;-86
2021/04/13 00:10:06;;;;;;;12.68;11.40;;;3.90;99.90;;;;;;5077784;28;20239;-86
2021/04/13 00:12:33;;;;;;;12.90;9.93;;;3.80;99.90;;;;;;5058361;28;20193;-85
2021/04/13 00:15:06;;;;;;;12.48;11.25;;;3.90;99.90;;;;;;5056687;28;20715;-86
2021/04/13 00:17:33;;;;;;;14.50;11.02;;;3.80;99.90;;;;;;5063604;28;20180;-86
2021/04/13 00:20:14;;;;;;;13.45;12.05;;;3.80;99.90;;;;;;5057266;28;20296;-87
2021/04/13 00:22:41;;;;;;;13.30;10.65;;;3.80;99.90;;;;;;5056338;28;20199;-87
2021/04/13 00:25:10;;;;;;;14.43;10.60;;;3.70;99.90;;;;;;5056299;28;20201;-86
2021/04/13 00:27:36;;;;;;;11.50;10.35;;;3.70;99.90;;;;;;5055663;28;20283;-87
2021/04/13 00:30:10;;;;;;;12.50;11.27;;;3.60;99.90;;;;;;5060314;28;20223;-87
2021/04/13 00:32:37;;;;;;;12.30;11.10;;;3.50;99.90;;;;;;5055791;28;20209;-87
2021/04/13 00:35:15;;;;;;;13.77;11.27;;;3.50;99.90;;;;;;5056111;28;20351;-86
2021/04/13 00:37:43;;;;;;;13.23;11.38;;;3.50;99.90;;;;;;5056193;28;20597;-86
2021/04/13 00:40:32;;;;;;;14.55;10.32;;;3.50;99.90;;;;;;5055319;28;20230;-85
2021/04/13 00:43:02;;;;;;;13.18;10.40;;;3.50;99.90;;;;;;5069154;28;20179;-85
2021/04/13 00:45:33;;;;;;;12.25;10.57;;;3.50;99.90;;;;;;5063086;28;20244;-85
2021/04/13 00:48:01;;;;;;;11.13;9.95;;;3.50;99.90;;;;;;5057402;28;20253;-86
2021/04/13 00:50:31;;;;;;;10.05;9.10;;;3.50;99.90;;;;;;5056057;28;20238;-86
2021/04/13 00:53:02;;;;;;;12.38;10.23;;;3.50;99.90;;;;;;5056027;28;20188;-86
2021/04/13 00:55:33;;;;;;;11.38;9.27;;;3.50;99.90;;;;;;5055553;28;20188;-86
2021/04/13 00:58:07;;;;;;;10.40;8.95;;;3.40;99.90;;;;;;5056057;28;20194;-86
2021/04/13 01:00:40;;;;;;;12.02;10.73;;;3.50;99.90;;;;;;5059882;28;20228;-86
2021/04/13 01:03:07;;;;;;;12.80;10.02;;;3.50;99.90;;;;;;5056737;28;20203;-86
2021/04/13 01:05:37;;;;;;;11.40;10.23;;;3.60;99.90;;;;;;5056080;28;20211;-85
2021/04/13 01:08:18;;;;;;;11.35;9.73;;;3.50;99.90;;;;;;5057687;28;20194;-85
2021/04/13 01:10:44;;;;;;;11.10;10.07;;;3.50;99.90;;;;;;5056191;28;20258;-85
2021/04/13 01:13:14;;;;;;;13.30;10.48;;;3.60;99.90;;;;;;5056300;28;20204;-85
2021/04/13 01:15:43;;;;;;;15.30;10.43;;;3.50;99.90;;;;;;5055462;28;20196;-85
2021/04/13 01:18:13;;;;;;;14.68;10.55;;;3.50;99.90;;;;;;5055199;28;20211;-86
2021/04/13 01:20:47;;;;;;;13.80;11.30;;;3.50;99.90;;;;;;5055299;28;20214;-85
2021/04/13 01:23:19;;;;;;;15.45;10.88;;;3.60;99.90;;;;;;5055456;28;20200;-85
2021/04/13 01:25:54;;;;;;;15.98;12.05;;;3.60;99.90;;;;;;5055423;28;20207;-86
2021/04/13 01:28:26;;;;;;;20.88;11.25;;;3.70;99.90;;;;;;5055786;28;20187;-85
2021/04/13 01:30:55;;;;;;;15.73;11.35;;;3.70;99.90;;;;;;5062812;28;20230;-85
2021/04/13 01:33:24;;;;;;;13.35;10.60;;;3.70;99.90;;;;;;5074959;28;20195;-85
2021/04/13 01:35:53;;;;;;;11.93;10.10;;;3.60;99.90;;;;;;5058432;28;20667;-86
2021/04/13 01:38:25;;;;;;;15.07;9.93;;;3.60;99.90;;;;;;5056734;28;20199;-86
2021/04/13 01:41:07;;;;;;;12.10;10.07;;;3.50;99.90;;;;;;5062038;28;20220;-87
2021/04/13 01:43:40;;;;;;;12.93;10.80;;;3.50;99.90;;;;;;5070287;28;20189;-86
2021/04/13 01:46:08;;;;;;;16.67;12.23;;;3.50;99.90;;;;;;5077167;28;20202;-86
2021/04/13 01:48:35;;;;;;;12.52;10.90;;;3.50;99.90;;;;;;5067254;28;20209;-86
2021/04/13 01:51:48;;;;;;;11.07;10.00;;;3.40;99.90;;;;;;5058803;28;20230;-85
2021/04/13 01:54:16;;;;;;;13.70;10.50;;;3.30;99.90;;;;;;5060246;28;20262;-86
2021/04/13 01:56:53;;;;;;;13.00;11.70;;;3.30;99.90;;;;;;5059175;28;20199;-86
2021/04/13 01:59:25;;;;;;;14.60;10.50;;;3.20;99.90;;;;;;5058927;28;20276;-85
2021/04/13 02:01:57;;;;;;;12.95;11.70;;;3.20;99.90;;;;;;5059216;28;20184;-86
2021/04/13 02:04:26;;;;;;;12.27;11.00;;;3.20;99.90;;;;;;5059431;28;20191;-86
2021/04/13 02:07:01;;;;;;;11.45;10.27;;;3.20;99.90;;;;;;5080554;28;20253;-85
2021/04/13 02:09:36;;;;;;;11.60;10.50;;;3.20;99.90;;;;;;5077940;28;20253;-85
2021/04/13 02:15:36;;;;;;;11.63;9.68;;;3.10;99.90;;;;;;5068861;28;20190;-87
2021/04/13 02:18:07;;;;;;;14.65;12.00;;;3.00;99.90;;;;;;5080613;28;20249;-87
2021/04/13 02:20:36;;;;;;;13.55;11.95;;;2.90;99.90;;;;;;5064436;28;20222;-87
2021/04/13 02:23:05;;;;;;;14.02;11.52;;;2.90;99.90;;;;;;5064359;28;20191;-86
2021/04/13 02:25:36;;;;;;;14.48;11.07;;;2.70;99.90;;;;;;5074383;28;20630;-86
2021/04/13 02:28:04;;;;;;;13.68;10.98;;;2.80;99.90;;;;;;5062046;28;20202;-87
2021/04/13 02:30:33;;;;;;;15.48;11.00;;;2.80;99.90;;;;;;5061760;28;20228;-87
2021/04/13 02:33:06;;;;;;;15.73;12.65;;;2.80;99.90;;;;;;5058967;28;20632;-86
2021/04/13 02:35:37;;;;;;;15.02;11.27;;;2.80;99.90;;;;;;5058977;28;20204;-86
2021/04/13 02:38:06;;;;;;;14.43;11.15;;;2.80;99.90;;;;;;5058677;28;20178;-87
2021/04/13 02:40:42;;;;;;;13.75;11.43;;;2.80;99.90;;;;;;5057850;28;20227;-86
2021/04/13 02:43:11;;;;;;;14.95;11.40;;;2.80;99.90;;;;;;5058261;28;20285;-86
2021/04/13 02:49:03;;;;;;;15.98;11.98;;;2.90;99.90;;;;;;5057161;28;20221;-86
2021/04/13 02:51:31;;;;;;;13.88;12.48;;;2.90;99.90;;;;;;5056230;28;20246;-85
2021/04/13 02:54:00;;;;;;;12.95;11.65;;;2.80;99.90;;;;;;5056099;28;20199;-86
2021/04/13 02:56:31;;;;;;;13.75;12.45;;;2.60;99.90;;;;;;5056027;28;20202;-86
2021/04/13 02:59:06;;;;;;;15.00;12.75;;;2.60;99.90;;;;;;5056364;28;20224;-86
2021/04/13 03:01:34;;;;;;;14.13;12.68;;;2.50;99.90;;;;;;5055756;28;20197;-87
2021/04/13 03:04:05;;;;;;;12.90;11.63;;;2.70;99.90;;;;;;5054858;28;20195;-87
2021/04/13 03:06:35;;;;;;;14.57;12.68;;;2.70;99.90;;;;;;5055841;28;20224;-87
2021/04/13 03:09:07;;;;;;;14.63;13.13;;;2.80;99.90;;;;;;5056282;28;20292;-87
2021/04/13 03:11:41;;;;;;;16.95;13.30;;;2.90;99.90;;;;;;5054219;28;20221;-87
2021/04/13 03:14:13;;;;;;;15.70;13.15;;;3.10;99.90;;;;;;5055598;28;20202;-87
2021/04/13 03:16:46;;;;;;;11.52;10.40;;;3.10;99.90;;;;;;5054848;28;20289;-87
2021/04/13 03:19:14;;;;;;;12.45;10.63;;;3.20;99.90;;;;;;5055506;28;20219;-87
2021/04/13 03:21:50;;;;;;;10.98;9.98;;;3.30;99.90;;;;;;5054989;28;20230;-87
2021/04/13 03:24:22;;;;;;;15.45;13.30;;;3.30;99.90;;;;;;5054895;28;20272;-86
2021/04/13 03:26:52;;;;;;;11.55;10.40;;;3.20;99.90;;;;;;5054840;28;20238;-85
2021/04/13 03:29:22;;;;;;;12.73;11.43;;;3.20;99.90;;;;;;5055090;28;20251;-87
2021/04/13 03:31:50;;;;;;;12.38;11.00;;;3.20;99.90;;;;;;5055938;28;20211;-87
2021/04/13 03:34:18;;;;;;;11.88;10.43;;;3.10;99.90;;;;;;5058111;28;20203;-85
2021/04/13 03:36:45;;;;;;;15.38;11.70;;;3.10;99.90;;;;;;5068227;28;20180;-84
2021/04/13 03:39:18;;;;;;;13.10;11.85;;;3.00;99.90;;;;;;5075134;28;20222;-85
2021/04/13 03:41:47;;;;;;;15.40;12.25;;;3.00;99.90;;;;;;5058234;28;20198;-86
2021/04/13 03:44:18;;;;;;;18.27;12.13;;;2.90;99.90;;;;;;5057030;28;20214;-85
2021/04/13 03:46:46;;;;;;;16.08;14.38;;;2.90;99.90;;;;;;5057020;28;20221;-86
2021/04/13 03:49:19;;;;;;;16.50;14.65;;;2.80;99.90;;;;;;5057438;28;20221;-86
2021/04/13 03:51:47;;;;;;;15.18;13.65;;;2.90;99.90;;;;;;5070750;28;20209;-87
2021/04/13 03:54:24;;;;;;;16.70;14.18;;;2.80;99.90;;;;;;5066707;28;20217;-86
2021/04/13 03:56:50;;;;;;;17.15;14.13;;;2.70;99.90;;;;;;5063098;28;20339;-85
2021/04/13 03:59:19;;;;;;;14.70;12.35;;;2.60;99.90;;;;;;5063569;28;20249;-86
2021/04/13 04:01:47;;;;;;;16.05;13.10;;;2.60;99.90;;;;;;5072930;28;20209;-85
2021/04/13 04:04:22;;;;;;;15.15;12.35;;;2.60;99.90;;;;;;5057182;28;20273;-87
2021/04/13 04:06:52;;;;;;;12.70;11.50;;;2.60;99.90;;;;;;5077101;28;20209;-85
2021/04/13 04:09:20;;;;;;;12.07;10.65;;;2.50;99.90;;;;;;5071711;28;20261;-86
2021/04/13 04:11:47;;;;;;;13.50;9.68;;;2.60;99.90;;;;;;5058336;28;20742;-86
2021/04/13 04:14:17;;;;;;;11.30;9.82;;;2.60;99.90;;;;;;5068925;28;20201;-86
2021/04/13 04:16:44;;;;;;;9.50;8.50;;;2.60;99.90;;;;;;5069612;28;20659;-86
2021/04/13 04:19:13;;;;;;;13.52;8.95;;;2.60;99.90;;;;;;5055778;28;20218;-86
2021/04/13 04:21:40;;;;;;;9.80;8.63;;;2.60;99.90;;;;;;5055185;28;20340;-87
2021/04/13 04:24:10;;;;;;;11.10;10.10;;;2.50;99.90;;;;;;5058789;28;20206;-86
2021/04/13 04:26:49;;;;;;;10.15;9.23;;;2.50;99.90;;;;;;5056502;28;20231;-86
2021/04/13 04:29:36;;;;;;;11.20;9.25;;;2.50;99.90;;;;;;5056166;28;20233;-86
2021/04/13 04:32:17;;;;;;;13.95;10.30;;;2.40;99.90;;;;;;5055231;28;20591;-85
2021/04/13 04:34:54;;;;;;;10.75;9.75;;;2.40;99.90;;;;;;5055071;28;20202;-86
2021/04/13 04:37:36;;;;;;;11.10;10.05;;;2.40;99.90;;;;;;5055135;28;20702;-86
2021/04/13 04:40:37;;;;;;;11.40;10.30;;;2.50;99.90;;;;;;5054543;28;20233;-86
2021/04/13 04:43:08;;;;;;;12.20;10.95;;;2.50;99.90;;;;;;5056748;28;20197;-86
2021/04/13 04:45:46;;;;;;;11.00;9.90;;;2.50;99.90;;;;;;5056752;28;20209;-87
2021/04/13 04:48:25;;;;;;;11.95;10.75;;;2.40;99.90;;;;;;5058839;28;20206;-86
2021/04/13 04:50:53;;;;;;;12.35;9.30;;;2.40;99.90;;;;;;5060311;28;20228;-87
2021/04/13 04:53:21;;;;;;;11.13;10.02;;;2.30;99.90;;;;;;5057646;28;20203;-86
2021/04/13 04:55:49;;;;;;;11.15;10.05;;;2.30;99.90;;;;;;5058810;28;20257;-86
2021/04/13 04:58:15;;;;;;;12.93;10.10;;;2.30;99.90;;;;;;5057851;28;20214;-87
2021/04/13 05:00:42;;;;;;;12.75;10.77;;;2.30;99.90;;;;;;5056906;28;20226;-86
2021/04/13 05:03:09;;;;;;;9.95;8.95;;;2.30;99.90;;;;;;5057025;28;20225;-86
2021/04/13 05:05:35;;;;;;;15.40;9.85;;;2.40;99.90;;;;;;5059079;28;20198;-86
2021/04/13 05:08:02;;;;;;;11.60;9.25;;;2.40;99.90;;;;;;5056682;28;20313;-85
2021/04/13 05:10:28;;;;;;;10.73;9.63;;;2.50;99.90;;;;;;5055598;28;20223;-86
2021/04/13 05:12:54;;;;;;;14.23;10.13;;;2.50;99.90;;;;;;5054573;28;20251;-86
2021/04/13 05:15:20;;;;;;;13.63;11.10;;;2.60;99.90;;;;;;5059609;28;20205;-86
2021/04/13 05:17:47;;;;;;;14.85;9.48;;;2.60;99.90;;;;;;5064769;28;20261;-87
2021/04/13 05:20:15;;;;;;;10.77;9.73;;;2.70;99.90;;;;;;5062064;28;20621;-86
2021/04/13 05:22:42;;;;;;;11.57;10.48;;;2.70;99.90;;;;;;5055475;28;20218;-86
2021/04/13 05:25:09;;;;;;;10.80;9.50;;;2.70;99.90;;;;;;5060992;28;20199;-86
2021/04/13 05:27:36;;;;;;;12.77;9.85;;;2.80;99.90;;;;;;5057262;28;20272;-86
2021/04/13 05:30:03;;;;;;;11.25;10.13;;;2.90;99.90;;;;;;5072792;28;20218;-85
2021/04/13 05:32:30;;;;;;;12.70;10.50;;;3.00;99.90;;;;;;5066441;28;20620;-86
2021/04/13 05:34:57;;;;;;;11.48;9.40;;;3.00;99.90;;;;;;5075832;28;20201;-86
2021/04/13 05:37:25;;;;;;;13.00;11.30;;;3.00;99.90;;;;;;5076846;28;20204;-86
2021/04/13 05:39:52;;;;;;;10.70;9.60;;;3.10;99.90;;;;;;5077816;28;20203;-86
2021/04/13 05:42:22;;;;;;;12.65;10.68;;;3.10;99.90;;;;;;5077758;28;20194;-85
2021/04/13 05:44:50;;;;;;;11.85;10.68;;;3.20;99.90;;;;;;5075909;28;20194;-86
2021/04/13 05:47:17;;;;;;;10.93;9.77;;;3.20;99.90;;;;;;5074727;28;20222;-86
2021/04/13 05:49:43;;;;;;;11.57;9.95;;;3.30;99.90;;;;;;5077217;28;20216;-86
2021/04/13 05:52:10;;;;;;;12.30;11.02;;;3.30;99.90;;;;;;5077047;28;20257;-86
2021/04/13 05:54:37;;;;;;;15.82;11.70;;;3.40;99.90;;;;;;5050090;28;20202;-86
2021/04/13 05:57:03;;;;;;;12.77;11.48;;;3.40;99.90;;;;;;5039790;28;20283;-85
2021/04/13 05:59:32;;;;;;;12.82;11.43;;;3.40;99.90;;;;;;5048382;28;20214;-86
2021/04/13 06:02:03;;;;;;;10.52;9.43;;;3.50;99.90;;;;;;5069790;28;20203;-85
2021/04/13 06:04:34;;;;;;;11.55;10.35;;;3.60;99.90;;;;;;5069137;28;20205;-86
2021/04/13 06:07:06;;;;;;;14.48;10.27;;;3.70;99.90;;;;;;5071623;28;20323;-87
2021/04/13 06:09:40;;;;;;;12.00;10.55;;;3.80;99.90;;;;;;5057985;28;20261;-87
2021/04/13 06:12:16;;;;;;;11.03;9.83;;;3.90;99.90;;;;;;5056425;28;20675;-86
2021/04/13 06:14:49;;;;;;;11.85;10.75;;;4.10;99.90;;;;;;5052040;28;20473;-87
2021/04/13 06:17:19;;;;;;;10.33;9.23;;;4.30;99.90;;;;;;5054573;28;20262;-88
2021/04/13 06:19:55;;;;;;;11.10;10.00;;;4.80;99.90;;;;;;5057004;28;20489;-88
2021/04/13 06:22:21;;;;;;;10.00;9.03;;;5.90;99.90;;;;;;5056965;28;20446;-89
2021/04/13 06:24:53;;;;;;;11.07;9.97;;;7.10;96.20;;;;;;5056970;28;20450;-87
2021/04/13 06:27:28;;;;;;;10.13;9.13;;;8.20;93.00;;;;;;5058839;28;20472;-87
2021/04/13 06:29:58;;;;;;;11.27;9.00;;;9.10;89.60;;;;;;5060830;28;20472;-88
2021/04/13 06:32:25;;;;;;;11.00;10.00;;;9.90;83.40;;;;;;5055315;28;20459;-88
2021/04/13 06:34:52;;;;;;;9.80;8.80;;;10.60;77.30;;;;;;5059643;28;20448;-88
2021/04/13 06:37:26;;;;;;;15.30;9.70;;;10.30;73.60;;;;;;5062050;28;20463;-86
2021/04/13 06:40:04;;;;;;;11.07;9.70;;;9.90;75.20;;;;;;5064981;28;20500;-85
2021/04/13 06:42:46;;;;;;;12.57;9.20;;;10.30;74.10;;;;;;5067675;28;20467;-86
2021/04/13 06:53:02;;;;;;;;;;;;;;;;;;;;;
2021/04/13 07:09:48;;;;;;;12.20;11.20;;;16.20;52.70;;;;;;4822221;29;20443;-86
2021/04/13 07:19:31;;;;;;;13.27;11.97;;;16.30;52.00;;;;;;4729452;30;20518;-86
2021/04/13 07:22:04;;;;;;;11.97;11.03;;;17.00;50.70;;;;;;4805275;29;20981;-86
2021/04/13 07:24:39;;;;;;;11.83;10.83;;;17.30;49.80;;;;;;5053141;28;20432;-85
2021/04/13 07:27:10;;;;;;;11.07;10.13;;;18.00;49.30;;;;;;5058071;28;20463;-84
2021/04/13 07:29:42;;;;;;;15.13;11.00;;;18.30;47.70;;;;;;5058846;28;20502;-85
2021/04/13 07:32:11;;;;;;;11.47;10.57;;;18.60;47.20;;;;;;5060323;28;20539;-87
2021/04/13 07:34:41;;;;;;;13.30;12.20;;;18.40;46.30;;;;;;5060329;28;20448;-87
2021/04/13 07:37:16;;;;;;;11.70;10.70;;;17.60;46.30;;;;;;5061697;28;20445;-87
2021/04/13 07:40:10;;;;;;;;;;;;;;;;;;;;;
2021/04/13 07:42:42;;;;;;;11.80;10.80;;;15.40;49.60;;;;;;5058559;28;20446;-86
2021/04/13 07:46:07;;;;;;;11.97;10.97;;;15.00;50.90;;;;;;5069046;28;20424;-86
2021/04/13 07:49:16;;;;;;;13.60;12.40;;;14.20;51.30;;;;;;5004731;28;21030;-85
2021/04/13 07:55:35;;;;;;;12.10;11.13;;;14.30;53.90;;;;;;4916376;28;20449;-88
2021/04/13 07:58:14;;;;;;;13.57;12.47;;;14.50;53.10;;;;;;5007514;28;20435;-85
2021/04/13 08:00:51;;;;;;;13.47;12.30;;;14.00;52.90;;;;;;5014776;28;20456;-85
2021/04/13 08:03:21;;;;;;;13.13;12.17;;;13.10;54.80;;;;;;5056375;28;20441;-84
2021/04/13 08:05:51;;;;;;;13.17;12.00;;;12.40;56.50;;;;;;5071818;28;20444;-85
2021/04/13 08:08:26;;;;;;;14.80;13.37;;;11.90;58.00;;;;;;5055995;28;20881;-83
2021/04/13 08:11:18;;;;;;;16.30;14.90;;;11.40;59.20;;;;;;5050687;28;20543;-83
2021/04/13 08:13:49;;;;;;;16.83;13.27;;;11.00;61.60;;;;;;5066261;28;20448;-84
2021/04/13 08:16:29;;;;;;;15.77;14.17;;;10.60;62.10;;;;;;5063744;28;20957;-85
2021/04/13 08:19:14;;;;;;;15.57;14.17;;;10.60;63.20;;;;;;5061648;28;20448;-84
2021/04/13 08:21:40;;;;;;;15.20;13.70;;;11.00;63.10;;;;;;5068694;28;20498;-84
2021/04/13 08:24:31;;;;;;;13.60;12.40;;;11.60;60.20;;;;;;5069203;28;20456;-85
2021/04/13 08:27:31;;;;;;;14.57;13.23;;;12.10;59.10;;;;;;5062630;28;20478;-83
2021/04/13 08:30:05;;;;;;;12.83;11.73;;;11.80;58.00;;;;;;5048025;28;20469;-84
2021/04/13 08:33:03;;;;;;;13.90;12.50;;;11.50;57.30;;;;;;5060700;28;20452;-85
2021/04/13 08:35:35;;;;;;;12.57;11.57;;;11.40;57.80;;;;;;5058057;28;20520;-85
2021/04/13 08:38:26;;;;;;;12.20;11.20;;;13.40;56.70;;;;;;5062914;28;20445;-86
2021/04/13 08:41:31;;;;;;;10.37;9.60;;;14.80;52.70;;;;;;5063046;28;20443;-84
2021/04/13 08:44:11;;;;;;;10.43;9.57;;;16.40;49.80;;;;;;5053760;28;20460;-84
2021/04/13 08:46:59;;;;;;;11.30;10.47;;;18.20;46.80;;;;;;5053486;28;20487;-85
2021/04/13 08:49:38;;;;;;;10.23;9.53;;;19.90;43.90;;;;;;5055069;28;20467;-84
2021/04/13 08:52:31;;;;;;;10.67;9.60;;;21.60;40.70;;;;;;5058965;28;20433;-85
2021/04/13 08:55:11;;;;;;;10.37;9.57;;;19.90;39.00;;;;;;5049333;28;20455;-84
2021/04/13 08:57:49;;;;;;;11.20;10.37;;;18.50;41.10;;;;;;5051689;28;20442;-85
2021/04/13 09:00:45;;;;;;;11.97;10.87;;;17.60;42.80;;;;;;5050629;28;20843;-84
2021/04/13 09:03:13;;;;;;;11.70;10.70;;;17.60;43.80;;;;;;5049630;28;20856;-84
2021/04/13 09:05:41;;;;;;;10.57;9.77;;;18.50;43.00;;;;;;5056083;28;20453;-84
2021/04/13 09:08:23;;;;;;;11.20;10.20;;;19.50;42.20;;;;;;5046401;28;20720;-84
2021/04/13 09:11:09;;;;;;;10.67;9.87;;;20.70;39.00;;;;;;5049823;28;20479;-83
2021/04/13 09:13:39;;;;;;;10.47;9.60;;;20.60;37.80;;;;;;5054934;28;20456;-84
2021/04/13 09:16:18;;;;;;;9.33;8.60;;;19.70;36.50;;;;;;5057401;28;20440;-82
2021/04/13 09:18:55;;;;;;;11.47;10.67;;;19.70;38.40;;;;;;5052638;28;20437;-84
2021/04/13 09:21:40;;;;;;;10.67;9.87;;;20.90;38.60;;;;;;5051787;28;20445;-85
2021/04/13 09:24:19;;;;;;;9.83;9.03;;;20.00;37.30;;;;;;5052656;28;20928;-85
2021/04/13 09:27:12;;;;;;;10.33;9.40;;;21.50;36.90;;;;;;5052424;28;20858;-84
2021/04/13 09:29:54;;;;;;;9.10;8.47;;;21.50;35.30;;;;;;5051546;28;20885;-84
2021/04/13 09:33:03;;;;;;;9.57;8.93;;;22.00;35.40;;;;;;5053130;28;20458;-84
2021/04/13 09:36:15;;;;;;;9.70;8.90;;;21.20;33.60;;;;;;5059837;28;20442;-84
2021/04/13 09:39:10;;;;;;;9.97;9.37;;;20.50;35.10;;;;;;4995276;28;20891;-84
2021/04/13 09:42:01;;;;;;;9.97;9.20;;;18.70;35.00;;;;;;5052011;28;20433;-84
2021/04/13 09:45:06;;;;;;;10.17;9.37;;;18.70;37.30;;;;;;5055443;28;20508;-85
2021/04/13 09:48:11;;;;;;;9.73;9.03;;;20.40;36.50;;;;;;5055028;28;20484;-85
2021/04/13 10:04:22;;;;;;;9.63;8.83;;;17.50;37.00;;;;;;5058804;28;20476;-84
2021/04/13 10:07:29;;;;;;;9.50;8.80;;;19.20;34.40;;;;;;4969165;28;20507;-86
2021/04/13 10:09:57;;;;;;;9.20;8.47;;;17.90;35.60;;;;;;4961236;28;20573;-87
2021/04/13 10:13:02;;;;;;;9.43;8.63;;;16.50;37.90;;;;;;5025187;28;20447;-86
2021/04/13 10:15:56;;;;;;;9.10;8.37;;;15.20;39.70;;;;;;5030518;28;20451;-86
2021/04/13 10:19:14;;;;;;;8.83;8.13;;;14.00;41.20;;;;;;5032092;28;20443;-86
2021/04/13 10:22:08;;;;;;;9.50;8.70;;;13.60;42.50;;;;;;5026987;28;20974;-87
2021/04/13 10:25:03;;;;;;;9.47;8.60;;;13.50;43.60;;;;;;5031415;28;20454;-87
2021/04/13 10:28:12;;;;;;;11.10;8.23;;;13.40;44.70;;;;;;5029675;28;20475;-86
2021/04/13 10:31:08;;;;;;;9.77;8.80;;;13.20;44.90;;;;;;5009254;28;20462;-86
2021/04/13 10:33:59;;;;;;;10.00;9.13;;;13.00;45.00;;;;;;5051331;28;20502;-84
2021/04/13 10:36:57;;;;;;;9.67;8.87;;;12.80;45.80;;;;;;5042504;28;20461;-85
2021/04/13 10:39:52;;;;;;;8.87;8.17;;;13.90;45.40;;;;;;5051095;28;20456;-85
2021/04/13 10:42:48;;;;;;;8.73;7.80;;;17.30;42.70;;;;;;5037764;28;20486;-86
2021/04/13 10:45:55;;;;;;;7.43;6.90;;;18.70;36.90;;;;;;5023038;28;20477;-86
2021/04/13 10:48:57;;;;;;;8.00;7.40;;;16.80;35.20;;;;;;4980498;28;20486;-85
2021/04/13 10:52:03;;;;;;;8.10;7.50;;;16.80;38.60;;;;;;5002449;28;20457;-87
2021/04/13 10:54:51;;;;;;;8.47;7.80;;;19.50;36.70;;;;;;5009519;28;20481;-86
2021/04/13 10:57:29;;;;;;;7.93;7.23;;;22.80;33.10;;;;;;5018201;28;20449;-87
2021/04/13 11:00:13;;;;;;;8.37;7.70;;;24.40;30.60;;;;;;5019169;28;20472;-86
2021/04/13 11:03:16;;;;;;;8.47;7.87;;;25.90;29.00;;;;;;5018493;28;20457;-87
2021/04/13 11:06:28;;;;;;;8.53;7.93;;;26.10;27.30;;;;;;5018847;28;20452;-86
2021/04/13 11:09:21;;;;;;;8.00;7.40;;;23.20;28.70;;;;;;4977085;28;20443;-87
2021/04/13 11:12:26;;;;;;;7.97;7.37;;;22.20;29.60;;;;;;4977233;28;20530;-87
2021/04/13 11:15:18;;;;;;;7.77;7.07;;;20.60;30.50;;;;;;5016899;28;20448;-86
2021/04/13 11:17:57;;;;;;;7.27;6.77;;;19.30;31.40;;;;;;5016999;28;21003;-86
2021/04/13 11:20:55;;;;;;;7.13;6.53;;;20.40;31.50;;;;;;5017239;28;20473;-86
2021/04/13 11:23:57;;;;;;;7.43;6.90;;;22.40;29.10;;;;;;5012920;28;20460;-87
2021/04/13 11:26:59;;;;;;;6.57;6.17;;;24.90;27.70;;;;;;5021039;28;20432;-86
2021/04/13 11:30:10;;;;;;;7.37;6.87;;;25.90;27.10;;;;;;5017414;28;20473;-86
2021/04/13 11:33:10;;;;;;;7.43;6.93;;;25.50;26.00;;;;;;5030783;28;20434;-87
2021/04/13 11:35:40;;;;;;;6.27;5.87;;;25.80;25.60;;;;;;5037097;28;20438;-86
2021/04/13 11:38:31;;;;;;;6.67;6.03;;;26.10;24.10;;;;;;5033860;28;20523;-86
2021/04/13 11:41:12;;;;;;;6.97;6.37;;;24.90;25.30;;;;;;5031644;28;20509;-86
2021/04/13 11:43:46;;;;;;;7.70;7.10;;;26.50;25.40;;;;;;5038699;28;20408;-86
2021/04/13 11:46:17;;;;;;;7.30;6.80;;;26.80;25.20;;;;;;5037959;28;20442;-87
2021/04/13 11:48:49;;;;;;;8.07;7.57;;;28.40;24.00;;;;;;5037334;28;20481;-87
2021/04/13 11:51:22;;;;;;;7.73;6.97;;;28.50;23.40;;;;;;5032796;28;20461;-87
2021/04/13 11:53:51;;;;;;;7.00;6.50;;;28.40;24.40;;;;;;5031813;28;20442;-86
2021/04/13 11:56:37;;;;;;;8.07;7.47;;;26.20;24.20;;;;;;5028731;28;20466;-86
2021/04/13 11:59:24;;;;;;;7.67;7.13;;;23.70;26.70;;;;;;5030354;28;20445;-86
2021/04/13 12:01:56;;;;;;;7.10;6.50;;;20.50;28.40;;;;;;5021580;28;20488;-85
2021/04/13 12:04:25;;;;;;;6.77;6.17;;;17.60;30.40;;;;;;5022600;28;20449;-86
2021/04/13 12:06:57;;;;;;;5.80;5.40;;;16.20;31.90;;;;;;5028125;28;20485;-85
2021/04/13 12:09:58;;;;;;;7.17;6.47;;;15.40;33.20;;;;;;5017957;28;20481;-85
2021/04/13 12:12:48;;;;;;;6.50;5.20;;;15.00;33.70;;;;;;5017164;28;20460;-85
2021/04/13 12:15:38;;;;;;;5.90;5.47;;;16.20;33.40;;;;;;5016441;28;20461;-85
2021/04/13 12:18:38;;;;;;;7.07;5.10;;;18.90;30.20;;;;;;5015245;28;20446;-85
2021/04/13 12:21:36;;;;;;;6.70;5.23;;;21.20;28.30;;;;;;5014973;28;20461;-85
2021/04/13 12:24:03;;;;;;;5.37;4.83;;;22.70;27.30;;;;;;5025717;28;20720;-85
2021/04/13 12:26:32;;;;;;;4.30;3.90;;;23.30;25.60;;;;;;5021581;28;20958;-85
2021/04/13 12:29:22;;;;;;;5.00;4.27;;;23.70;24.90;;;;;;5015871;28;20455;-85
2021/04/13 12:32:21;;;;;;;4.40;4.00;;;25.60;24.00;;;;;;5015938;28;20445;-85
2021/04/13 12:34:50;;;;;;;5.27;4.87;;;23.60;23.10;;;;;;5014960;28;20793;-85
2021/04/13 12:37:42;;;;;;;5.03;4.50;;;20.70;24.30;;;;;;5015847;28;20434;-87
2021/04/13 12:40:29;;;;;;;4.27;3.97;;;20.00;26.10;;;;;;5016538;28;21009;-86
2021/04/13 12:43:16;;;;;;;11.03;5.20;;;19.40;27.10;;;;;;5016288;28;20508;-85
2021/04/13 12:45:47;;;;;;;4.47;4.10;;;20.20;27.20;;;;;;5026649;28;20498;-85
2021/04/13 12:48:28;;;;;;;4.83;4.53;;;21.00;26.10;;;;;;5026809;28;20701;-85
2021/04/13 12:51:14;;;;;;;4.63;4.23;;;22.60;25.80;;;;;;5016857;28;20528;-85
2021/04/13 12:53:41;;;;;;;5.30;4.80;;;23.00;24.50;;;;;;5015798;28;20446;-85
2021/04/13 12:56:10;;;;;;;4.20;3.90;;;24.30;24.30;;;;;;5015107;28;20441;-85
2021/04/13 12:58:38;;;;;;;4.70;4.30;;;25.30;23.70;;;;;;5015289;28;20440;-85
2021/04/13 13:01:06;;;;;;;5.20;4.80;;;23.50;23.60;;;;;;5015012;28;20473;-85
2021/04/13 13:03:38;;;;;;;4.63;4.33;;;24.70;24.60;;;;;;5015068;28;20506;-86
2021/04/13 13:06:17;;;;;;;5.80;5.40;;;24.00;23.20;;;;;;5015003;28;20449;-87
2021/04/13 13:08:56;;;;;;;5.30;4.90;;;22.10;24.70;;;;;;5015130;28;20487;-85
2021/04/13 13:11:22;;;;;;;5.83;5.23;;;20.10;26.10;;;;;;5015182;28;20465;-87
2021/04/13 13:13:50;;;;;;;4.67;4.37;;;18.70;28.30;;;;;;5015238;28;20454;-87
2021/04/13 13:16:21;;;;;;;5.10;4.70;;;17.20;30.10;;;;;;5017122;28;20569;-86
2021/04/13 13:18:50;;;;;;;6.43;5.80;;;16.30;31.90;;;;;;5018763;28;20443;-86
2021/04/13 13:21:19;;;;;;;5.47;5.03;;;15.50;32.80;;;;;;5016512;28;20481;-87
2021/04/13 13:23:48;;;;;;;5.90;5.40;;;15.10;33.50;;;;;;5024357;28;20480;-87
2021/04/13 13:26:20;;;;;;;5.70;4.90;;;14.70;34.10;;;;;;5018700;28;20487;-86
2021/04/13 13:28:47;;;;;;;5.77;4.23;;;14.40;34.90;;;;;;5036983;28;20510;-85
2021/04/13 13:31:18;;;;;;;6.23;5.17;;;14.60;35.10;;;;;;5026017;28;20468;-87
2021/04/13 13:33:47;;;;;;;5.90;4.47;;;15.30;34.50;;;;;;5028241;28;20450;-85
2021/04/13 13:36:15;;;;;;;5.30;4.80;;;16.50;33.30;;;;;;5015430;28;20748;-86
2021/04/13 13:38:44;;;;;;;5.43;4.93;;;18.80;32.50;;;;;;5013542;28;20453;-85
2021/04/13 13:41:13;;;;;;;5.60;5.10;;;20.90;29.50;;;;;;5013961;28;20462;-85
2021/04/13 13:43:39;;;;;;;5.83;5.40;;;22.90;27.60;;;;;;5015185;28;20446;-86
2021/04/13 13:46:27;;;;;;;4.47;4.07;;;23.90;26.60;;;;;;5015698;28;20490;-86
2021/04/13 13:48:55;;;;;;;4.10;3.80;;;24.30;25.00;;;;;;5014093;28;20488;-86
2021/04/13 13:51:28;;;;;;;4.07;3.70;;;24.80;24.90;;;;;;5015879;28;20449;-86
2021/04/13 13:53:56;;;;;;;5.43;5.03;;;24.70;25.00;;;;;;5017333;28;20453;-85
2021/04/13 13:56:33;;;;;;;4.13;3.83;;;23.80;24.30;;;;;;5033787;28;20433;-85
2021/04/13 13:59:32;;;;;;;3.93;3.63;;;24.10;24.50;;;;;;5018386;28;20523;-86
2021/04/13 14:02:09;;;;;;;4.10;3.80;;;24.20;23.80;;;;;;5015000;28;20512;-86
2021/04/13 14:04:38;;;;;;;4.80;3.73;;;23.60;23.70;;;;;;5013918;28;20589;-85
2021/04/13 14:07:06;;;;;;;4.20;3.47;;;22.50;24.10;;;;;;5014246;28;20959;-86
2021/04/13 14:09:33;;;;;;;4.90;3.97;;;21.70;24.50;;;;;;5013927;28;20477;-86
2021/04/13 14:12:28;;;;;;;4.50;4.10;;;21.00;25.00;;;;;;5013949;28;20469;-86
2021/04/13 14:14:55;;;;;;;5.43;4.60;;;21.10;25.70;;;;;;5014129;28;20960;-86
2021/04/13 14:17:32;;;;;;;4.33;3.93;;;21.10;25.10;;;;;;5027135;28;20442;-83
2021/04/13 14:20:07;;;;;;;5.00;4.57;;;20.80;25.50;;;;;;5020895;28;20467;-86
2021/04/13 14:22:34;;;;;;;5.53;4.23;;;22.10;25.70;;;;;;5014394;28;20796;-86
2021/04/13 14:25:12;;;;;;;4.03;3.73;;;22.60;26.00;;;;;;5014419;28;20451;-86
2021/04/13 14:27:41;;;;;;;4.60;4.20;;;22.10;26.10;;;;;;5014297;28;20770;-86